Terminal Aerodrome Forecast
Issued by NWS Boston, MA

Home | Current Version | Previous Version | Text Only | Print | Product List | Glossary On
Versions: 1 2 3 4 5 6 7 8 9 10 11 12 13 14 15 16 17 18 19 20 21 22 23 24 25 26 27 28 29 30 31 32 33 34 35 36 37 38 39 40 41 42 43 44 45 46 47 48
000
FTUS41 KBOX 230523
TAFBDL
TAF
KBDL 230523Z 2306/2412 20007KT P6SM SCT060 BKN110
     FM231000 19005KT 5SM BR VCSH BKN060
     FM231200 19005KT P6SM VCSH BKN050
     FM231800 20013G21KT P6SM VCSH BKN060
     FM232000 21013G22KT P6SM VCSH BKN030
     FM240200 19007KT 3SM SHRA BR OVC030=

USA.gov is the U.S. government's official web portal to all federal, state and local government web resources and services.